Αναφορές METAR Αεροδρομίων

 

LGTS - THESSALONIKI - GREECE
Ενημερώθηκε: 17/08/2018 01:50
Αραιές Νεφώσεις
Αραιές Νεφώσεις
 Ανεμος από varies
Ανεμος: varies 4 km/h
Θερμοκρασία: 24°C
Σημ. Δρόσου: 16°C
Υγρασία: 61%
Βαρόμετρο: 1011 hPa
Clouds: Αραιές Νεφώσεις
Visibility: 10 km
Cloud details: Αραιές Νεφώσεις 610 m
2018/08/16 22:50 LGTS 162250Z VRB02KT 9999 FEW020 24/16 Q1011 NOSIG
LGLR - LARTISA - GREECE
Ενημερώθηκε: 17/08/2018 01:50
Σχεδόν νεφελώδης
Σχεδόν νεφελώδης
 Ανεμος από calm
Ανεμος: Απνοια
Θερμοκρασία: 21°C
Σημ. Δρόσου: 16°C
Υγρασία: 73%
Βαρόμετρο: 1011 hPa
Clouds: Σχεδόν νεφελώδης
Visibility: 10 km
Cloud details: Αραιές Νεφώσεις 914 m
Σχεδόν νεφελώδης 2438 m
2018/08/16 22:50 LGLR 162250Z 00000KT 9999 FEW030 BKN080 21/16 Q1011 BLU
 
LGKZ - KOZANI - GREECE
Ενημερώθηκε: 16/08/2018 20:50
NOT Current
Αραιές Νεφώσεις
Αραιές Νεφώσεις
 Ανεμος από calm
Ανεμος: Απνοια
Θερμοκρασία: 22°C
Σημ. Δρόσου: 13°C
Υγρασία: 57%
Βαρόμετρο: 1014 hPa
Clouds: Αραιές Νεφώσεις
Visibility: 10 km
Cloud details: Αραιές Νεφώσεις 2134 m
2018/08/16 17:50 LGKZ 161750Z 00000KT 9999 FEW070 22/13 Q1014
LGKV - KAVALA - GREECE
Ενημερώθηκε: 16/08/2018 23:20
NOT Current
Αραιές Νεφώσεις
Αραιές Νεφώσεις
 Ανεμος από calm
Ανεμος: Απνοια
Θερμοκρασία: 26°C
Σημ. Δρόσου: 20°C
Υγρασία: 70%
Βαρόμετρο: 1010 hPa
Clouds: Αραιές Νεφώσεις
Visibility: 10 km
Cloud details: Αραιές Νεφώσεις 1067 m
2018/08/16 20:20 LGKV 162020Z 00000KT 9999 FEW035 26/20 Q1010
 
LGIO - IOANNINA - GREECE
Ενημερώθηκε: 17/08/2018 00:50
NOT Current
Μερικώς νεφελώδης
Μερικώς νεφελώδης
 Ανεμος από varies
Ανεμος: varies 0 km/h
Θερμοκρασία: 18°C
Σημ. Δρόσου: 17°C
Υγρασία: 94%
Βαρόμετρο: 1014 hPa
Clouds: Μερικώς νεφελώδης
Visibility: 10 km
Cloud details: Μερικώς νεφελώδης 914 m
Μερικώς νεφελώδης 2134 m
2018/08/16 21:50 LGIO 162150Z /////KT 9999 SCT030 SCT070 18/17 Q1014
LGBL - BOLOS - GREECE
Ενημερώθηκε: 17/08/2018 01:50
Μερικώς νεφελώδης
Μερικώς νεφελώδης
 Ανεμος από ΔΒΔ
Ανεμος: ΔΒΔ 13 km/h
Θερμοκρασία: 24°C
Σημ. Δρόσου: 16°C
Υγρασία: 61%
Βαρόμετρο: 1011 hPa
Clouds: Μερικώς νεφελώδης
Visibility: 10 km
Cloud details: Αραιές Νεφώσεις 914 m
Μερικώς νεφελώδης 2438 m
2018/08/16 22:50 LGBL 162250Z 29007KT 9999 FEW030 SCT080 24/16 Q1011
 
LGMT - MITILINI - GREECE
Ενημερώθηκε: 16/08/2018 22:50
NOT Current
Αίθριος
Αίθριος
 Ανεμος από calm
Ανεμος: Απνοια
Θερμοκρασία: 27°C
Δείκτης θερμότητας: 28°C
Σημ. Δρόσου: 19°C
Υγρασία: 62%
Βαρόμετρο: 1009 hPa
Περίληψη: Αίθριος
Visibility: greater than 10 km
2018/08/16 19:50 LGMT 161950Z 00000KT CAVOK 27/19 Q1009
LGAV - ATHENS - GREECE
Ενημερώθηκε: 17/08/2018 01:50
Αραιές Νεφώσεις
Αραιές Νεφώσεις
 Ανεμος από varies
Ανεμος: varies 4 km/h
Θερμοκρασία: 22°C
Σημ. Δρόσου: 14°C
Υγρασία: 61%
Βαρόμετρο: 1011 hPa
Clouds: Αραιές Νεφώσεις
Visibility: 10 km
Cloud details: Αραιές Νεφώσεις 914 m
2018/08/16 22:50 LGAV 162250Z VRB02KT 9999 FEW030 22/14 Q1011 NOSIG
 
LGRP - RODOS - GREECE
Ενημερώθηκε: 17/08/2018 01:50
Αίθριος
Αίθριος
 Ανεμος από Δ
Ανεμος: Δ 30 km/h
Θερμοκρασία: 25°C
Σημ. Δρόσου: 20°C
Υγρασία: 74%
Βαρόμετρο: 1007 hPa
Περίληψη: Αίθριος
Visibility: greater than 10 km
2018/08/16 22:50 LGRP 162250Z 26016KT CAVOK 25/20 Q1007 NOSIG
LGIR - HRAKLIO/KRITI - GREECE
Ενημερώθηκε: 17/08/2018 01:50
Αραιές Νεφώσεις
Αραιές Νεφώσεις
 Ανεμος από Ν
Ανεμος: Ν 7 km/h
Θερμοκρασία: 24°C
Σημ. Δρόσου: 21°C
Υγρασία: 83%
Βαρόμετρο: 1011 hPa
Clouds: Αραιές Νεφώσεις
Visibility: 10 km
Cloud details: Αραιές Νεφώσεις 610 m
2018/08/16 22:50 LGIR 162250Z 19004KT 9999 FEW020 24/21 Q1011 NOSIG
 
LGMK - MIKONOS - GREECE
Ενημερώθηκε: 17/08/2018 01:50
Αίθριος
Αίθριος
 Ανεμος από calm
Ανεμος: Απνοια
Θερμοκρασία: 24°C
Σημ. Δρόσου: 18°C
Υγρασία: 69%
Βαρόμετρο: 1010 hPa
Περίληψη: Αίθριος
Visibility: greater than 10 km
2018/08/16 22:50 LGMK 162250Z 00000KT CAVOK 24/18 Q1010
LGKR - KERKIRA - GREECE
Ενημερώθηκε: 17/08/2018 01:50
Μερικώς νεφελώδης
Μερικώς νεφελώδης
 Ανεμος από calm
Ανεμος: Απνοια
Θερμοκρασία: 23°C
Σημ. Δρόσου: 19°C
Υγρασία: 78%
Βαρόμετρο: 1011 hPa
Clouds: Μερικώς νεφελώδης
Visibility: 10 km
Cloud details: Αραιές Νεφώσεις 914 m
Μερικώς νεφελώδης 2438 m
2018/08/16 22:50 LGKR 162250Z 00000KT 9999 FEW030 SCT080 23/19 Q1011 NOSIG